Ringgold, Nebraska
Current Conditions -  °F | °C
As of 7:53 AM on Thursday 30 Oct 2014 (Local Time) from KLBF Reporting Station
Clear Clear  
Wind Chill: 28°   Ceiling: Unl
Heat Index: 33°   Visibility: 10mi
Dew Point: 26°   Wind: 6mph
Humidity: 75%   Direction: 280°W
Pressure: 30.2"   Gusts: NA
Location:  41.5681°N, 101.06°W
Report Text: KLBF 301253Z AUTO 28005KT 10SM CLR 01/M03 A3020 RMK AO2 SLP238 T00061033
Loading
Personal Weather Stations






























Interactive Weather Map
Tropical Storm Tracking
New forecast layout! Learn more

10-Day Weather Forecast

Advertisements
Track Severe Weather on mobile